sensor_id;sensor_type;location;lat;lon;timestamp;P1;durP1;ratioP1;P2;durP2;ratioP2
5040;SDS011;2539;52.568;13.364;2023-05-16T00:00:57;8.73;;;7.70;;
5040;SDS011;2539;52.568;13.364;2023-05-16T00:03:23;9.70;;;8.30;;
5040;SDS011;2539;52.568;13.364;2023-05-16T00:05:50;11.33;;;7.97;;
5040;SDS011;2539;52.568;13.364;2023-05-16T00:08:16;15.87;;;7.77;;
5040;SDS011;2539;52.568;13.364;2023-05-16T00:10:49;8.70;;;6.70;;
5040;SDS011;2539;52.568;13.364;2023-05-16T00:13:15;9.00;;;7.70;;
5040;SDS011;2539;52.568;13.364;2023-05-16T00:15:46;9.80;;;8.10;;
5040;SDS011;2539;52.568;13.364;2023-05-16T00:18:13;7.93;;;7.23;;
5040;SDS011;2539;52.568;13.364;2023-05-16T00:20:41;8.47;;;7.67;;
5040;SDS011;2539;52.568;13.364;2023-05-16T00:23:08;7.87;;;7.20;;
5040;SDS011;2539;52.568;13.364;2023-05-16T00:25:35;8.23;;;7.37;;
5040;SDS011;2539;52.568;13.364;2023-05-16T00:28:02;9.40;;;8.40;;
5040;SDS011;2539;52.568;13.364;2023-05-16T00:30:28;8.93;;;8.00;;
5040;SDS011;2539;52.568;13.364;2023-05-16T00:32:54;9.53;;;8.63;;
5040;SDS011;2539;52.568;13.364;2023-05-16T00:35:21;11.47;;;8.67;;
5040;SDS011;2539;52.568;13.364;2023-05-16T00:37:47;12.37;;;8.80;;
5040;SDS011;2539;52.568;13.364;2023-05-16T00:40:14;9.73;;;8.83;;
5040;SDS011;2539;52.568;13.364;2023-05-16T00:42:41;9.90;;;9.00;;
5040;SDS011;2539;52.568;13.364;2023-05-16T00:45:07;16.50;;;9.37;;
5040;SDS011;2539;52.568;13.364;2023-05-16T00:47:35;10.90;;;9.20;;
5040;SDS011;2539;52.568;13.364;2023-05-16T00:50:01;10.60;;;9.60;;
5040;SDS011;2539;52.568;13.364;2023-05-16T00:52:29;12.67;;;10.33;;
5040;SDS011;2539;52.568;13.364;2023-05-16T00:54:58;10.77;;;9.70;;
5040;SDS011;2539;52.568;13.364;2023-05-16T00:57:24;10.83;;;9.73;;
5040;SDS011;2539;52.568;13.364;2023-05-16T00:59:51;23.20;;;10.40;;
5040;SDS011;2539;52.568;13.364;2023-05-16T01:02:17;12.70;;;10.50;;
5040;SDS011;2539;52.568;13.364;2023-05-16T01:04:44;14.40;;;10.20;;
5040;SDS011;2539;52.568;13.364;2023-05-16T01:07:13;12.90;;;11.37;;
5040;SDS011;2539;52.568;13.364;2023-05-16T01:09:39;28.83;;;12.80;;
5040;SDS011;2539;52.568;13.364;2023-05-16T01:15:12;14.30;;;12.60;;
5040;SDS011;2539;52.568;13.364;2023-05-16T01:23:26;15.70;;;14.10;;
5040;SDS011;2539;52.568;13.364;2023-05-16T01:26:24;16.77;;;14.90;;
5040;SDS011;2539;52.568;13.364;2023-05-16T01:28:52;19.57;;;14.73;;
5040;SDS011;2539;52.568;13.364;2023-05-16T01:31:20;18.27;;;14.07;;
5040;SDS011;2539;52.568;13.364;2023-05-16T01:33:47;16.70;;;14.13;;
5040;SDS011;2539;52.568;13.364;2023-05-16T01:41:51;16.53;;;13.97;;
5040;SDS011;2539;52.568;13.364;2023-05-16T01:44:28;21.13;;;15.60;;
5040;SDS011;2539;52.568;13.364;2023-05-16T01:47:01;20.80;;;14.30;;
5040;SDS011;2539;52.568;13.364;2023-05-16T01:52:07;17.77;;;12.37;;
5040;SDS011;2539;52.568;13.364;2023-05-16T01:54:36;16.20;;;12.67;;
5040;SDS011;2539;52.568;13.364;2023-05-16T01:57:04;21.70;;;14.60;;
5040;SDS011;2539;52.568;13.364;2023-05-16T01:59:33;19.30;;;13.73;;
5040;SDS011;2539;52.568;13.364;2023-05-16T02:02:00;15.93;;;12.67;;
5040;SDS011;2539;52.568;13.364;2023-05-16T02:04:27;15.40;;;12.57;;
5040;SDS011;2539;52.568;13.364;2023-05-16T02:06:53;15.03;;;12.53;;
5040;SDS011;2539;52.568;13.364;2023-05-16T02:09:20;17.93;;;14.50;;
5040;SDS011;2539;52.568;13.364;2023-05-16T02:11:46;15.53;;;13.40;;
5040;SDS011;2539;52.568;13.364;2023-05-16T02:14:12;15.43;;;12.97;;
5040;SDS011;2539;52.568;13.364;2023-05-16T02:16:39;14.73;;;13.00;;
5040;SDS011;2539;52.568;13.364;2023-05-16T02:19:05;19.53;;;14.50;;
5040;SDS011;2539;52.568;13.364;2023-05-16T02:21:31;20.37;;;14.50;;
5040;SDS011;2539;52.568;13.364;2023-05-16T02:23:58;14.87;;;12.50;;
5040;SDS011;2539;52.568;13.364;2023-05-16T02:26:24;19.67;;;12.97;;
5040;SDS011;2539;52.568;13.364;2023-05-16T02:28:50;16.73;;;13.30;;
5040;SDS011;2539;52.568;13.364;2023-05-16T02:31:29;14.17;;;12.47;;
5040;SDS011;2539;52.568;13.364;2023-05-16T02:33:56;24.27;;;13.63;;
5040;SDS011;2539;52.568;13.364;2023-05-16T02:36:22;17.27;;;13.13;;
5040;SDS011;2539;52.568;13.364;2023-05-16T02:38:48;16.63;;;14.63;;
5040;SDS011;2539;52.568;13.364;2023-05-16T02:41:14;15.70;;;12.03;;
5040;SDS011;2539;52.568;13.364;2023-05-16T02:43:40;17.03;;;12.97;;
5040;SDS011;2539;52.568;13.364;2023-05-16T02:46:24;16.23;;;13.03;;
5040;SDS011;2539;52.568;13.364;2023-05-16T02:48:52;16.10;;;13.10;;
5040;SDS011;2539;52.568;13.364;2023-05-16T02:51:20;17.70;;;14.00;;
5040;SDS011;2539;52.568;13.364;2023-05-16T02:53:47;20.27;;;13.97;;
5040;SDS011;2539;52.568;13.364;2023-05-16T02:56:14;15.50;;;13.80;;
5040;SDS011;2539;52.568;13.364;2023-05-16T02:58:41;17.67;;;14.30;;
5040;SDS011;2539;52.568;13.364;2023-05-16T03:01:08;16.70;;;13.87;;
5040;SDS011;2539;52.568;13.364;2023-05-16T03:03:35;15.53;;;13.20;;
5040;SDS011;2539;52.568;13.364;2023-05-16T03:06:02;19.40;;;13.93;;
5040;SDS011;2539;52.568;13.364;2023-05-16T03:08:28;17.97;;;14.70;;
5040;SDS011;2539;52.568;13.364;2023-05-16T03:10:55;18.80;;;14.87;;
5040;SDS011;2539;52.568;13.364;2023-05-16T03:13:21;17.20;;;13.60;;
5040;SDS011;2539;52.568;13.364;2023-05-16T03:15:48;18.67;;;13.63;;
5040;SDS011;2539;52.568;13.364;2023-05-16T03:18:14;17.30;;;13.93;;
5040;SDS011;2539;52.568;13.364;2023-05-16T03:20:40;19.73;;;15.03;;
5040;SDS011;2539;52.568;13.364;2023-05-16T03:23:07;19.30;;;15.27;;
5040;SDS011;2539;52.568;13.364;2023-05-16T03:25:34;23.00;;;14.97;;
5040;SDS011;2539;52.568;13.364;2023-05-16T03:28:01;18.63;;;14.20;;
5040;SDS011;2539;52.568;13.364;2023-05-16T03:30:31;16.53;;;14.00;;
5040;SDS011;2539;52.568;13.364;2023-05-16T03:32:58;16.63;;;13.87;;
5040;SDS011;2539;52.568;13.364;2023-05-16T03:35:24;16.53;;;14.47;;
5040;SDS011;2539;52.568;13.364;2023-05-16T03:37:51;16.90;;;14.43;;
5040;SDS011;2539;52.568;13.364;2023-05-16T03:40:17;21.13;;;15.63;;
5040;SDS011;2539;52.568;13.364;2023-05-16T03:42:43;21.30;;;16.17;;
5040;SDS011;2539;52.568;13.364;2023-05-16T03:45:10;23.53;;;15.40;;
5040;SDS011;2539;52.568;13.364;2023-05-16T03:47:37;20.10;;;16.50;;
5040;SDS011;2539;52.568;13.364;2023-05-16T03:50:04;17.37;;;14.80;;
5040;SDS011;2539;52.568;13.364;2023-05-16T03:52:31;22.10;;;15.60;;
5040;SDS011;2539;52.568;13.364;2023-05-16T03:54:58;21.50;;;17.40;;
5040;SDS011;2539;52.568;13.364;2023-05-16T03:57:26;25.70;;;16.23;;
5040;SDS011;2539;52.568;13.364;2023-05-16T03:59:52;24.47;;;15.73;;
5040;SDS011;2539;52.568;13.364;2023-05-16T04:02:19;18.27;;;15.50;;
5040;SDS011;2539;52.568;13.364;2023-05-16T04:04:45;19.07;;;16.50;;
5040;SDS011;2539;52.568;13.364;2023-05-16T04:07:11;17.80;;;15.00;;
5040;SDS011;2539;52.568;13.364;2023-05-16T04:09:38;22.10;;;14.90;;
5040;SDS011;2539;52.568;13.364;2023-05-16T04:12:04;21.47;;;16.33;;
5040;SDS011;2539;52.568;13.364;2023-05-16T04:14:31;20.60;;;15.13;;
5040;SDS011;2539;52.568;13.364;2023-05-16T04:16:58;22.80;;;16.33;;
5040;SDS011;2539;52.568;13.364;2023-05-16T04:19:24;20.10;;;15.53;;
5040;SDS011;2539;52.568;13.364;2023-05-16T04:21:51;20.53;;;14.93;;
5040;SDS011;2539;52.568;13.364;2023-05-16T04:24:17;21.87;;;17.00;;
5040;SDS011;2539;52.568;13.364;2023-05-16T04:26:44;22.60;;;15.83;;
5040;SDS011;2539;52.568;13.364;2023-05-16T04:29:10;22.67;;;15.80;;
5040;SDS011;2539;52.568;13.364;2023-05-16T04:31:36;19.93;;;15.23;;
5040;SDS011;2539;52.568;13.364;2023-05-16T04:34:03;22.50;;;15.90;;
5040;SDS011;2539;52.568;13.364;2023-05-16T04:36:29;23.60;;;16.10;;
5040;SDS011;2539;52.568;13.364;2023-05-16T04:38:56;17.73;;;15.30;;
5040;SDS011;2539;52.568;13.364;2023-05-16T04:41:22;23.00;;;17.07;;
5040;SDS011;2539;52.568;13.364;2023-05-16T04:43:48;23.00;;;15.53;;
5040;SDS011;2539;52.568;13.364;2023-05-16T04:46:15;20.23;;;16.53;;
5040;SDS011;2539;52.568;13.364;2023-05-16T04:48:41;20.23;;;16.33;;
5040;SDS011;2539;52.568;13.364;2023-05-16T04:51:07;23.40;;;15.90;;
5040;SDS011;2539;52.568;13.364;2023-05-16T04:53:32;21.07;;;15.30;;
5040;SDS011;2539;52.568;13.364;2023-05-16T04:55:58;22.53;;;16.30;;
5040;SDS011;2539;52.568;13.364;2023-05-16T04:58:24;20.93;;;16.20;;
5040;SDS011;2539;52.568;13.364;2023-05-16T05:00:51;22.97;;;17.27;;
5040;SDS011;2539;52.568;13.364;2023-05-16T05:03:17;19.97;;;15.57;;
5040;SDS011;2539;52.568;13.364;2023-05-16T05:05:43;22.00;;;15.70;;
5040;SDS011;2539;52.568;13.364;2023-05-16T05:08:10;21.27;;;15.90;;
5040;SDS011;2539;52.568;13.364;2023-05-16T05:10:37;20.43;;;14.93;;
5040;SDS011;2539;52.568;13.364;2023-05-16T05:13:03;23.33;;;16.60;;
5040;SDS011;2539;52.568;13.364;2023-05-16T05:15:30;20.23;;;15.20;;
5040;SDS011;2539;52.568;13.364;2023-05-16T05:17:56;19.03;;;15.10;;
5040;SDS011;2539;52.568;13.364;2023-05-16T05:20:23;17.67;;;13.87;;
5040;SDS011;2539;52.568;13.364;2023-05-16T05:22:49;25.30;;;14.30;;
5040;SDS011;2539;52.568;13.364;2023-05-16T05:25:15;16.07;;;14.37;;
5040;SDS011;2539;52.568;13.364;2023-05-16T05:27:42;20.93;;;14.43;;
5040;SDS011;2539;52.568;13.364;2023-05-16T05:30:08;20.37;;;12.80;;
5040;SDS011;2539;52.568;13.364;2023-05-16T05:32:34;16.80;;;11.40;;
5040;SDS011;2539;52.568;13.364;2023-05-16T05:35:01;20.73;;;12.10;;
5040;SDS011;2539;52.568;13.364;2023-05-16T05:37:28;17.77;;;11.97;;
5040;SDS011;2539;52.568;13.364;2023-05-16T05:39:55;15.90;;;11.60;;
5040;SDS011;2539;52.568;13.364;2023-05-16T05:42:21;15.10;;;12.17;;
5040;SDS011;2539;52.568;13.364;2023-05-16T05:44:47;16.50;;;12.40;;
5040;SDS011;2539;52.568;13.364;2023-05-16T05:47:14;17.47;;;10.80;;
5040;SDS011;2539;52.568;13.364;2023-05-16T05:49:40;15.70;;;12.37;;
5040;SDS011;2539;52.568;13.364;2023-05-16T05:52:07;13.00;;;11.57;;
5040;SDS011;2539;52.568;13.364;2023-05-16T05:54:34;15.97;;;11.80;;
5040;SDS011;2539;52.568;13.364;2023-05-16T05:57:00;15.53;;;10.93;;
5040;SDS011;2539;52.568;13.364;2023-05-16T05:59:26;16.00;;;11.00;;
5040;SDS011;2539;52.568;13.364;2023-05-16T06:01:53;24.13;;;10.97;;
5040;SDS011;2539;52.568;13.364;2023-05-16T06:04:19;17.27;;;10.80;;
5040;SDS011;2539;52.568;13.364;2023-05-16T06:06:46;23.70;;;10.73;;
5040;SDS011;2539;52.568;13.364;2023-05-16T06:09:12;12.03;;;10.07;;
5040;SDS011;2539;52.568;13.364;2023-05-16T06:11:40;15.43;;;10.33;;
5040;SDS011;2539;52.568;13.364;2023-05-16T06:14:07;11.00;;;9.40;;
5040;SDS011;2539;52.568;13.364;2023-05-16T06:16:33;10.87;;;9.10;;
5040;SDS011;2539;52.568;13.364;2023-05-16T06:18:59;12.53;;;10.03;;
5040;SDS011;2539;52.568;13.364;2023-05-16T06:21:25;13.23;;;10.30;;
5040;SDS011;2539;52.568;13.364;2023-05-16T06:23:52;11.30;;;8.10;;
5040;SDS011;2539;52.568;13.364;2023-05-16T06:26:18;15.40;;;9.10;;
5040;SDS011;2539;52.568;13.364;2023-05-16T06:28:45;10.33;;;8.90;;
5040;SDS011;2539;52.568;13.364;2023-05-16T06:31:11;13.10;;;9.70;;
5040;SDS011;2539;52.568;13.364;2023-05-16T06:33:37;12.33;;;9.03;;
5040;SDS011;2539;52.568;13.364;2023-05-16T06:36:03;12.20;;;8.33;;
5040;SDS011;2539;52.568;13.364;2023-05-16T06:38:30;12.93;;;8.43;;
5040;SDS011;2539;52.568;13.364;2023-05-16T06:40:56;13.30;;;8.67;;
5040;SDS011;2539;52.568;13.364;2023-05-16T06:43:22;11.23;;;8.43;;
5040;SDS011;2539;52.568;13.364;2023-05-16T06:45:49;10.17;;;6.93;;
5040;SDS011;2539;52.568;13.364;2023-05-16T06:48:16;8.40;;;7.50;;
5040;SDS011;2539;52.568;13.364;2023-05-16T06:50:49;8.87;;;8.03;;
5040;SDS011;2539;52.568;13.364;2023-05-16T06:53:17;9.13;;;7.10;;
5040;SDS011;2539;52.568;13.364;2023-05-16T06:55:44;10.80;;;6.93;;
5040;SDS011;2539;52.568;13.364;2023-05-16T06:58:10;10.87;;;7.13;;
5040;SDS011;2539;52.568;13.364;2023-05-16T07:00:36;9.50;;;6.93;;
5040;SDS011;2539;52.568;13.364;2023-05-16T07:03:03;8.07;;;7.13;;
5040;SDS011;2539;52.568;13.364;2023-05-16T07:05:29;9.07;;;7.07;;
5040;SDS011;2539;52.568;13.364;2023-05-16T07:07:56;7.47;;;6.53;;
5040;SDS011;2539;52.568;13.364;2023-05-16T07:10:23;7.73;;;6.60;;
5040;SDS011;2539;52.568;13.364;2023-05-16T07:12:49;11.43;;;7.00;;
5040;SDS011;2539;52.568;13.364;2023-05-16T07:15:15;8.53;;;6.20;;
5040;SDS011;2539;52.568;13.364;2023-05-16T07:17:42;8.00;;;5.80;;
5040;SDS011;2539;52.568;13.364;2023-05-16T07:20:09;9.13;;;6.40;;
5040;SDS011;2539;52.568;13.364;2023-05-16T07:22:38;6.20;;;5.20;;
5040;SDS011;2539;52.568;13.364;2023-05-16T07:25:05;7.20;;;5.73;;
5040;SDS011;2539;52.568;13.364;2023-05-16T07:27:38;7.60;;;4.80;;
5040;SDS011;2539;52.568;13.364;2023-05-16T07:30:09;5.97;;;4.90;;
5040;SDS011;2539;52.568;13.364;2023-05-16T07:32:36;7.43;;;5.23;;
5040;SDS011;2539;52.568;13.364;2023-05-16T07:35:03;5.97;;;4.87;;
5040;SDS011;2539;52.568;13.364;2023-05-16T07:37:29;6.53;;;4.80;;
5040;SDS011;2539;52.568;13.364;2023-05-16T07:39:56;7.63;;;5.07;;
5040;SDS011;2539;52.568;13.364;2023-05-16T07:42:22;7.67;;;5.07;;
5040;SDS011;2539;52.568;13.364;2023-05-16T07:44:48;7.63;;;4.80;;
5040;SDS011;2539;52.568;13.364;2023-05-16T07:47:14;5.93;;;4.23;;
5040;SDS011;2539;52.568;13.364;2023-05-16T07:49:41;4.80;;;4.10;;
5040;SDS011;2539;52.568;13.364;2023-05-16T07:52:07;13.53;;;4.20;;
5040;SDS011;2539;52.568;13.364;2023-05-16T07:54:33;6.83;;;3.73;;
5040;SDS011;2539;52.568;13.364;2023-05-16T07:57:00;5.90;;;3.90;;
5040;SDS011;2539;52.568;13.364;2023-05-16T07:59:27;4.80;;;3.70;;
5040;SDS011;2539;52.568;13.364;2023-05-16T08:01:53;5.90;;;3.43;;
5040;SDS011;2539;52.568;13.364;2023-05-16T08:04:21;5.40;;;3.63;;
5040;SDS011;2539;52.568;13.364;2023-05-16T08:06:47;4.43;;;3.50;;
5040;SDS011;2539;52.568;13.364;2023-05-16T08:09:14;5.47;;;3.80;;
5040;SDS011;2539;52.568;13.364;2023-05-16T08:11:40;6.10;;;3.87;;
5040;SDS011;2539;52.568;13.364;2023-05-16T08:14:09;6.40;;;3.27;;
5040;SDS011;2539;52.568;13.364;2023-05-16T08:16:36;5.03;;;3.73;;
5040;SDS011;2539;52.568;13.364;2023-05-16T08:19:02;4.20;;;2.87;;
5040;SDS011;2539;52.568;13.364;2023-05-16T08:21:28;5.60;;;3.00;;
5040;SDS011;2539;52.568;13.364;2023-05-16T08:23:56;7.90;;;3.37;;
5040;SDS011;2539;52.568;13.364;2023-05-16T08:26:22;6.57;;;3.70;;
5040;SDS011;2539;52.568;13.364;2023-05-16T08:28:49;7.43;;;3.40;;
5040;SDS011;2539;52.568;13.364;2023-05-16T08:31:15;4.47;;;3.00;;
5040;SDS011;2539;52.568;13.364;2023-05-16T08:33:42;4.40;;;2.60;;
5040;SDS011;2539;52.568;13.364;2023-05-16T08:36:08;5.13;;;2.80;;
5040;SDS011;2539;52.568;13.364;2023-05-16T08:38:34;6.93;;;3.23;;
5040;SDS011;2539;52.568;13.364;2023-05-16T08:41:00;7.00;;;2.70;;
5040;SDS011;2539;52.568;13.364;2023-05-16T08:43:26;7.20;;;3.07;;
5040;SDS011;2539;52.568;13.364;2023-05-16T08:45:53;5.67;;;2.90;;
5040;SDS011;2539;52.568;13.364;2023-05-16T08:48:20;4.40;;;2.73;;
5040;SDS011;2539;52.568;13.364;2023-05-16T08:50:47;7.20;;;2.50;;
5040;SDS011;2539;52.568;13.364;2023-05-16T08:53:14;3.50;;;2.20;;
5040;SDS011;2539;52.568;13.364;2023-05-16T08:55:45;4.33;;;2.40;;
5040;SDS011;2539;52.568;13.364;2023-05-16T08:58:13;4.90;;;2.43;;
5040;SDS011;2539;52.568;13.364;2023-05-16T09:00:40;3.77;;;2.43;;
5040;SDS011;2539;52.568;13.364;2023-05-16T09:03:06;3.17;;;2.30;;
5040;SDS011;2539;52.568;13.364;2023-05-16T09:05:33;5.27;;;2.30;;
5040;SDS011;2539;52.568;13.364;2023-05-16T09:07:59;4.87;;;2.33;;
5040;SDS011;2539;52.568;13.364;2023-05-16T09:10:26;5.20;;;2.13;;
5040;SDS011;2539;52.568;13.364;2023-05-16T09:12:52;5.30;;;2.60;;
5040;SDS011;2539;52.568;13.364;2023-05-16T09:15:18;3.00;;;2.33;;
5040;SDS011;2539;52.568;13.364;2023-05-16T09:17:46;4.30;;;2.30;;
5040;SDS011;2539;52.568;13.364;2023-05-16T09:20:14;4.70;;;2.67;;
5040;SDS011;2539;52.568;13.364;2023-05-16T09:22:52;8.13;;;2.60;;
5040;SDS011;2539;52.568;13.364;2023-05-16T09:25:20;4.13;;;2.60;;
5040;SDS011;2539;52.568;13.364;2023-05-16T09:27:51;4.13;;;2.60;;
5040;SDS011;2539;52.568;13.364;2023-05-16T09:30:22;3.60;;;2.40;;
5040;SDS011;2539;52.568;13.364;2023-05-16T09:32:53;6.13;;;2.43;;
5040;SDS011;2539;52.568;13.364;2023-05-16T09:35:19;5.37;;;2.10;;
5040;SDS011;2539;52.568;13.364;2023-05-16T09:37:46;6.23;;;2.37;;
5040;SDS011;2539;52.568;13.364;2023-05-16T09:40:14;6.77;;;2.20;;
5040;SDS011;2539;52.568;13.364;2023-05-16T09:42:41;3.33;;;2.07;;
5040;SDS011;2539;52.568;13.364;2023-05-16T09:45:12;3.43;;;2.07;;
5040;SDS011;2539;52.568;13.364;2023-05-16T09:47:39;5.00;;;2.53;;
5040;SDS011;2539;52.568;13.364;2023-05-16T09:50:14;6.70;;;2.47;;
5040;SDS011;2539;52.568;13.364;2023-05-16T09:52:43;12.33;;;2.63;;
5040;SDS011;2539;52.568;13.364;2023-05-16T09:55:09;2.90;;;1.90;;
5040;SDS011;2539;52.568;13.364;2023-05-16T09:57:36;3.13;;;2.27;;
5040;SDS011;2539;52.568;13.364;2023-05-16T10:00:09;9.00;;;2.23;;
5040;SDS011;2539;52.568;13.364;2023-05-16T10:02:36;4.53;;;2.13;;
5040;SDS011;2539;52.568;13.364;2023-05-16T10:05:04;3.53;;;2.20;;
5040;SDS011;2539;52.568;13.364;2023-05-16T10:07:31;4.90;;;2.57;;
5040;SDS011;2539;52.568;13.364;2023-05-16T10:10:04;7.60;;;3.70;;
5040;SDS011;2539;52.568;13.364;2023-05-16T10:12:32;5.23;;;2.17;;
5040;SDS011;2539;52.568;13.364;2023-05-16T10:14:59;7.20;;;3.07;;
5040;SDS011;2539;52.568;13.364;2023-05-16T10:17:29;8.47;;;3.00;;
5040;SDS011;2539;52.568;13.364;2023-05-16T10:20:02;7.57;;;4.60;;
5040;SDS011;2539;52.568;13.364;2023-05-16T10:22:33;8.07;;;3.80;;
5040;SDS011;2539;52.568;13.364;2023-05-16T10:27:30;4.70;;;2.47;;
5040;SDS011;2539;52.568;13.364;2023-05-16T10:29:58;4.77;;;2.40;;
5040;SDS011;2539;52.568;13.364;2023-05-16T10:32:25;4.10;;;2.70;;
5040;SDS011;2539;52.568;13.364;2023-05-16T10:34:53;6.10;;;2.33;;
5040;SDS011;2539;52.568;13.364;2023-05-16T10:37:21;7.50;;;2.50;;
5040;SDS011;2539;52.568;13.364;2023-05-16T10:39:50;5.40;;;2.53;;
5040;SDS011;2539;52.568;13.364;2023-05-16T10:42:17;5.20;;;3.30;;
5040;SDS011;2539;52.568;13.364;2023-05-16T10:44:44;6.53;;;2.90;;
5040;SDS011;2539;52.568;13.364;2023-05-16T10:47:11;10.87;;;3.93;;
5040;SDS011;2539;52.568;13.364;2023-05-16T10:49:39;8.77;;;4.80;;
5040;SDS011;2539;52.568;13.364;2023-05-16T10:52:07;7.40;;;3.87;;
5040;SDS011;2539;52.568;13.364;2023-05-16T10:54:39;5.50;;;2.63;;
5040;SDS011;2539;52.568;13.364;2023-05-16T10:57:16;6.97;;;2.93;;
5040;SDS011;2539;52.568;13.364;2023-05-16T10:59:46;7.37;;;2.80;;
5040;SDS011;2539;52.568;13.364;2023-05-16T11:02:20;7.83;;;3.60;;
5040;SDS011;2539;52.568;13.364;2023-05-16T11:04:57;7.73;;;3.40;;
5040;SDS011;2539;52.568;13.364;2023-05-16T11:07:30;7.63;;;3.87;;
5040;SDS011;2539;52.568;13.364;2023-05-16T11:10:02;10.53;;;3.27;;
5040;SDS011;2539;52.568;13.364;2023-05-16T11:15:34;11.67;;;2.50;;
5040;SDS011;2539;52.568;13.364;2023-05-16T11:18:07;8.40;;;3.30;;
5040;SDS011;2539;52.568;13.364;2023-05-16T11:20:38;4.23;;;2.53;;
5040;SDS011;2539;52.568;13.364;2023-05-16T11:25:56;10.03;;;2.70;;
5040;SDS011;2539;52.568;13.364;2023-05-16T11:28:28;6.87;;;3.03;;
5040;SDS011;2539;52.568;13.364;2023-05-16T11:30:56;5.03;;;2.53;;
5040;SDS011;2539;52.568;13.364;2023-05-16T11:33:23;4.83;;;2.10;;
5040;SDS011;2539;52.568;13.364;2023-05-16T11:38:46;4.60;;;2.17;;
5040;SDS011;2539;52.568;13.364;2023-05-16T11:41:12;10.03;;;2.80;;
5040;SDS011;2539;52.568;13.364;2023-05-16T11:43:43;5.47;;;3.20;;
5040;SDS011;2539;52.568;13.364;2023-05-16T11:46:13;8.57;;;2.53;;
5040;SDS011;2539;52.568;13.364;2023-05-16T11:48:41;7.17;;;2.40;;
5040;SDS011;2539;52.568;13.364;2023-05-16T11:51:08;12.47;;;3.30;;
5040;SDS011;2539;52.568;13.364;2023-05-16T11:53:35;7.20;;;2.60;;
5040;SDS011;2539;52.568;13.364;2023-05-16T11:56:02;9.93;;;2.40;;
5040;SDS011;2539;52.568;13.364;2023-05-16T11:58:29;5.73;;;2.37;;
5040;SDS011;2539;52.568;13.364;2023-05-16T12:00:55;6.27;;;2.60;;
5040;SDS011;2539;52.568;13.364;2023-05-16T12:03:22;4.97;;;2.27;;
5040;SDS011;2539;52.568;13.364;2023-05-16T12:05:54;7.40;;;2.33;;
5040;SDS011;2539;52.568;13.364;2023-05-16T12:08:22;4.90;;;2.23;;
5040;SDS011;2539;52.568;13.364;2023-05-16T12:10:52;6.53;;;2.13;;
5040;SDS011;2539;52.568;13.364;2023-05-16T12:13:19;6.97;;;2.40;;
5040;SDS011;2539;52.568;13.364;2023-05-16T12:15:47;3.77;;;2.07;;
5040;SDS011;2539;52.568;13.364;2023-05-16T12:18:15;4.40;;;1.93;;
5040;SDS011;2539;52.568;13.364;2023-05-16T12:20:42;5.30;;;1.90;;
5040;SDS011;2539;52.568;13.364;2023-05-16T12:23:10;4.40;;;2.60;;
5040;SDS011;2539;52.568;13.364;2023-05-16T12:25:38;7.90;;;2.47;;
5040;SDS011;2539;52.568;13.364;2023-05-16T12:28:06;7.97;;;2.20;;
5040;SDS011;2539;52.568;13.364;2023-05-16T12:30:32;10.13;;;3.50;;
5040;SDS011;2539;52.568;13.364;2023-05-16T12:33:02;7.37;;;3.90;;
5040;SDS011;2539;52.568;13.364;2023-05-16T12:35:34;8.53;;;2.60;;
5040;SDS011;2539;52.568;13.364;2023-05-16T12:38:03;7.17;;;2.47;;
5040;SDS011;2539;52.568;13.364;2023-05-16T12:40:30;4.83;;;2.77;;
5040;SDS011;2539;52.568;13.364;2023-05-16T12:42:57;9.47;;;2.43;;
5040;SDS011;2539;52.568;13.364;2023-05-16T12:45:25;7.47;;;2.13;;
5040;SDS011;2539;52.568;13.364;2023-05-16T12:47:52;6.13;;;2.17;;
5040;SDS011;2539;52.568;13.364;2023-05-16T12:50:19;10.03;;;2.00;;
5040;SDS011;2539;52.568;13.364;2023-05-16T12:52:46;9.67;;;1.93;;
5040;SDS011;2539;52.568;13.364;2023-05-16T12:55:16;4.50;;;2.43;;
5040;SDS011;2539;52.568;13.364;2023-05-16T12:57:44;3.10;;;1.70;;
5040;SDS011;2539;52.568;13.364;2023-05-16T13:00:15;9.00;;;4.10;;
5040;SDS011;2539;52.568;13.364;2023-05-16T13:02:46;4.77;;;2.00;;
5040;SDS011;2539;52.568;13.364;2023-05-16T13:05:13;6.73;;;1.90;;
5040;SDS011;2539;52.568;13.364;2023-05-16T13:07:40;10.53;;;1.60;;
5040;SDS011;2539;52.568;13.364;2023-05-16T13:10:07;4.70;;;1.60;;
5040;SDS011;2539;52.568;13.364;2023-05-16T13:12:37;15.53;;;2.33;;
5040;SDS011;2539;52.568;13.364;2023-05-16T13:15:06;5.47;;;2.10;;
5040;SDS011;2539;52.568;13.364;2023-05-16T13:17:35;7.80;;;2.00;;
5040;SDS011;2539;52.568;13.364;2023-05-16T13:20:02;6.83;;;2.20;;
5040;SDS011;2539;52.568;13.364;2023-05-16T13:22:34;5.17;;;1.80;;
5040;SDS011;2539;52.568;13.364;2023-05-16T13:25:01;6.83;;;2.23;;
5040;SDS011;2539;52.568;13.364;2023-05-16T13:27:29;6.40;;;1.60;;
5040;SDS011;2539;52.568;13.364;2023-05-16T13:29:55;4.60;;;1.97;;
5040;SDS011;2539;52.568;13.364;2023-05-16T13:32:23;5.33;;;1.63;;
5040;SDS011;2539;52.568;13.364;2023-05-16T13:34:50;6.07;;;1.83;;
5040;SDS011;2539;52.568;13.364;2023-05-16T13:37:17;7.70;;;2.57;;
5040;SDS011;2539;52.568;13.364;2023-05-16T13:39:44;7.10;;;2.23;;
5040;SDS011;2539;52.568;13.364;2023-05-16T13:42:10;7.10;;;2.50;;
5040;SDS011;2539;52.568;13.364;2023-05-16T13:44:36;5.63;;;1.70;;
5040;SDS011;2539;52.568;13.364;2023-05-16T13:47:02;5.17;;;2.03;;
5040;SDS011;2539;52.568;13.364;2023-05-16T13:49:29;5.13;;;2.30;;
5040;SDS011;2539;52.568;13.364;2023-05-16T13:51:55;7.60;;;2.03;;
5040;SDS011;2539;52.568;13.364;2023-05-16T13:54:23;6.50;;;1.77;;
5040;SDS011;2539;52.568;13.364;2023-05-16T13:56:49;5.30;;;2.20;;
5040;SDS011;2539;52.568;13.364;2023-05-16T13:59:15;7.00;;;2.03;;
5040;SDS011;2539;52.568;13.364;2023-05-16T14:01:42;6.50;;;1.70;;
5040;SDS011;2539;52.568;13.364;2023-05-16T14:04:08;8.37;;;2.30;;
5040;SDS011;2539;52.568;13.364;2023-05-16T14:06:34;15.10;;;5.30;;
5040;SDS011;2539;52.568;13.364;2023-05-16T14:08:59;6.43;;;4.00;;
5040;SDS011;2539;52.568;13.364;2023-05-16T14:11:25;4.40;;;2.20;;
5040;SDS011;2539;52.568;13.364;2023-05-16T14:13:54;8.63;;;2.03;;
5040;SDS011;2539;52.568;13.364;2023-05-16T14:16:22;4.27;;;1.83;;
5040;SDS011;2539;52.568;13.364;2023-05-16T14:18:48;12.83;;;3.20;;
5040;SDS011;2539;52.568;13.364;2023-05-16T14:21:14;4.97;;;1.60;;
5040;SDS011;2539;52.568;13.364;2023-05-16T14:23:40;5.73;;;1.70;;
5040;SDS011;2539;52.568;13.364;2023-05-16T14:26:07;7.93;;;1.93;;
5040;SDS011;2539;52.568;13.364;2023-05-16T14:28:33;6.40;;;2.07;;
5040;SDS011;2539;52.568;13.364;2023-05-16T14:31:00;19.07;;;11.50;;
5040;SDS011;2539;52.568;13.364;2023-05-16T14:33:27;16.10;;;8.07;;
5040;SDS011;2539;52.568;13.364;2023-05-16T14:35:53;5.37;;;2.70;;
5040;SDS011;2539;52.568;13.364;2023-05-16T14:38:20;8.63;;;1.47;;
5040;SDS011;2539;52.568;13.364;2023-05-16T14:40:46;10.67;;;2.43;;
5040;SDS011;2539;52.568;13.364;2023-05-16T14:43:13;4.20;;;1.70;;
5040;SDS011;2539;52.568;13.364;2023-05-16T14:45:39;5.27;;;2.90;;
5040;SDS011;2539;52.568;13.364;2023-05-16T14:48:06;8.33;;;2.93;;
5040;SDS011;2539;52.568;13.364;2023-05-16T14:50:32;6.40;;;1.67;;
5040;SDS011;2539;52.568;13.364;2023-05-16T14:52:59;11.37;;;4.53;;
5040;SDS011;2539;52.568;13.364;2023-05-16T14:55:26;27.37;;;14.87;;
5040;SDS011;2539;52.568;13.364;2023-05-16T14:57:52;7.57;;;3.47;;
5040;SDS011;2539;52.568;13.364;2023-05-16T15:00:22;5.50;;;2.13;;
5040;SDS011;2539;52.568;13.364;2023-05-16T15:02:49;4.27;;;1.77;;
5040;SDS011;2539;52.568;13.364;2023-05-16T15:05:16;3.50;;;1.20;;
5040;SDS011;2539;52.568;13.364;2023-05-16T15:07:43;9.90;;;5.33;;
5040;SDS011;2539;52.568;13.364;2023-05-16T15:10:09;5.67;;;2.90;;
5040;SDS011;2539;52.568;13.364;2023-05-16T15:12:36;4.50;;;1.77;;
5040;SDS011;2539;52.568;13.364;2023-05-16T15:15:06;4.97;;;1.70;;
5040;SDS011;2539;52.568;13.364;2023-05-16T15:17:36;9.37;;;5.50;;
5040;SDS011;2539;52.568;13.364;2023-05-16T15:20:05;10.93;;;2.93;;